sensor_id;sensor_type;location;lat;lon;timestamp;pressure;altitude;pressure_sealevel;temperature;humidity
62436;BME280;48480;50.252;18.848;2023-02-13T00:01:58;100662.71;;;2.99;79.42
62436;BME280;48480;50.252;18.848;2023-02-13T00:04:23;100667.04;;;3.00;79.55
62436;BME280;48480;50.252;18.848;2023-02-13T00:06:48;100669.31;;;3.01;79.65
62436;BME280;48480;50.252;18.848;2023-02-13T00:09:14;100668.17;;;3.03;79.56
62436;BME280;48480;50.252;18.848;2023-02-13T00:11:40;100665.02;;;3.04;79.41
62436;BME280;48480;50.252;18.848;2023-02-13T00:14:06;100666.11;;;3.05;79.33
62436;BME280;48480;50.252;18.848;2023-02-13T00:16:33;100664.54;;;3.02;79.21
62436;BME280;48480;50.252;18.848;2023-02-13T00:18:59;100671.27;;;3.05;79.28
62436;BME280;48480;50.252;18.848;2023-02-13T00:21:25;100673.80;;;3.05;79.17
62436;BME280;48480;50.252;18.848;2023-02-13T00:23:50;100675.89;;;3.04;79.15
62436;BME280;48480;50.252;18.848;2023-02-13T00:26:16;100676.09;;;3.03;79.03
62436;BME280;48480;50.252;18.848;2023-02-13T00:28:43;100670.91;;;3.04;79.11
62436;BME280;48480;50.252;18.848;2023-02-13T00:31:20;100662.48;;;3.00;78.88
62436;BME280;48480;50.252;18.848;2023-02-13T00:33:46;100657.20;;;2.90;79.26
62436;BME280;48480;50.252;18.848;2023-02-13T00:36:15;100650.84;;;2.85;79.63
62436;BME280;48480;50.252;18.848;2023-02-13T00:38:42;100651.77;;;2.83;79.90
62436;BME280;48480;50.252;18.848;2023-02-13T00:41:08;100657.16;;;2.82;80.10
62436;BME280;48480;50.252;18.848;2023-02-13T00:43:35;100658.03;;;2.81;80.24
62436;BME280;48480;50.252;18.848;2023-02-13T00:46:01;100665.25;;;2.78;80.14
62436;BME280;48480;50.252;18.848;2023-02-13T00:48:28;100664.23;;;2.78;80.44
62436;BME280;48480;50.252;18.848;2023-02-13T00:50:54;100656.08;;;2.78;80.44
62436;BME280;48480;50.252;18.848;2023-02-13T00:53:24;100661.27;;;2.80;80.66
62436;BME280;48480;50.252;18.848;2023-02-13T00:55:51;100659.39;;;2.85;80.53
62436;BME280;48480;50.252;18.848;2023-02-13T00:58:18;100662.55;;;2.90;80.52
62436;BME280;48480;50.252;18.848;2023-02-13T01:00:45;100658.26;;;2.93;80.19
62436;BME280;48480;50.252;18.848;2023-02-13T01:03:15;100656.55;;;2.94;80.19
62436;BME280;48480;50.252;18.848;2023-02-13T01:05:42;100653.72;;;2.95;79.99
62436;BME280;48480;50.252;18.848;2023-02-13T01:08:09;100652.27;;;2.94;80.03
62436;BME280;48480;50.252;18.848;2023-02-13T01:10:39;100652.88;;;2.95;80.24
62436;BME280;48480;50.252;18.848;2023-02-13T01:13:06;100650.29;;;2.97;80.29
62436;BME280;48480;50.252;18.848;2023-02-13T01:15:33;100651.51;;;2.97;80.40
62436;BME280;48480;50.252;18.848;2023-02-13T01:17:58;100648.95;;;2.98;80.50
62436;BME280;48480;50.252;18.848;2023-02-13T01:20:26;100643.14;;;3.00;80.63
62436;BME280;48480;50.252;18.848;2023-02-13T01:22:57;100647.16;;;3.04;80.70
62436;BME280;48480;50.252;18.848;2023-02-13T01:25:23;100645.96;;;3.06;80.76
62436;BME280;48480;50.252;18.848;2023-02-13T01:27:49;100639.58;;;3.09;80.78
62436;BME280;48480;50.252;18.848;2023-02-13T01:30:15;100634.95;;;3.08;80.81
62436;BME280;48480;50.252;18.848;2023-02-13T01:32:44;100633.68;;;3.08;81.07
62436;BME280;48480;50.252;18.848;2023-02-13T01:35:11;100630.98;;;3.10;81.00
62436;BME280;48480;50.252;18.848;2023-02-13T01:37:38;100624.55;;;3.07;80.92
62436;BME280;48480;50.252;18.848;2023-02-13T01:40:05;100624.21;;;3.07;81.16
62436;BME280;48480;50.252;18.848;2023-02-13T01:42:33;100629.85;;;3.05;81.24
62436;BME280;48480;50.252;18.848;2023-02-13T01:47:34;100632.30;;;3.07;81.42
62436;BME280;48480;50.252;18.848;2023-02-13T01:52:51;100628.00;;;3.10;81.63
62436;BME280;48480;50.252;18.848;2023-02-13T01:55:19;100625.83;;;3.10;81.55
62436;BME280;48480;50.252;18.848;2023-02-13T01:57:49;100619.33;;;3.11;81.56
62436;BME280;48480;50.252;18.848;2023-02-13T02:00:16;100620.95;;;3.10;81.55
62436;BME280;48480;50.252;18.848;2023-02-13T02:02:46;100616.55;;;3.07;81.66
62436;BME280;48480;50.252;18.848;2023-02-13T02:05:19;100616.02;;;3.04;81.84
62436;BME280;48480;50.252;18.848;2023-02-13T02:07:46;100609.18;;;3.03;81.83
62436;BME280;48480;50.252;18.848;2023-02-13T02:10:17;100612.66;;;3.01;81.95
62436;BME280;48480;50.252;18.848;2023-02-13T02:13:14;100610.84;;;2.98;82.22
62436;BME280;48480;50.252;18.848;2023-02-13T02:15:43;100608.20;;;2.97;82.31
62436;BME280;48480;50.252;18.848;2023-02-13T02:18:20;100611.09;;;2.97;82.47
62436;BME280;48480;50.252;18.848;2023-02-13T02:21:21;100607.83;;;2.99;82.55
62436;BME280;48480;50.252;18.848;2023-02-13T02:27:03;100600.86;;;3.01;82.61
62436;BME280;48480;50.252;18.848;2023-02-13T02:41:20;100604.02;;;3.07;82.77
62436;BME280;48480;50.252;18.848;2023-02-13T02:49:40;100602.86;;;3.08;83.11
62436;BME280;48480;50.252;18.848;2023-02-13T02:52:41;100605.30;;;3.10;83.11
62436;BME280;48480;50.252;18.848;2023-02-13T02:57:48;100608.32;;;3.11;83.33
62436;BME280;48480;50.252;18.848;2023-02-13T03:00:40;100608.77;;;3.12;83.23
62436;BME280;48480;50.252;18.848;2023-02-13T03:03:26;100604.84;;;3.12;83.25
62436;BME280;48480;50.252;18.848;2023-02-13T03:06:18;100603.90;;;3.14;83.39
62436;BME280;48480;50.252;18.848;2023-02-13T03:08:55;100606.95;;;3.17;83.41
62436;BME280;48480;50.252;18.848;2023-02-13T03:11:42;100599.89;;;3.16;83.51
62436;BME280;48480;50.252;18.848;2023-02-13T03:14:28;100606.46;;;3.21;83.51
62436;BME280;48480;50.252;18.848;2023-02-13T03:16:56;100607.35;;;3.22;83.37
62436;BME280;48480;50.252;18.848;2023-02-13T03:22:48;100612.10;;;3.26;83.60
62436;BME280;48480;50.252;18.848;2023-02-13T03:33:56;100607.06;;;3.26;83.38
62436;BME280;48480;50.252;18.848;2023-02-13T03:39:19;100609.22;;;3.26;83.69
62436;BME280;48480;50.252;18.848;2023-02-13T03:44:21;100608.77;;;3.25;83.71
62436;BME280;48480;50.252;18.848;2023-02-13T03:46:52;100609.70;;;3.26;83.60
62436;BME280;48480;50.252;18.848;2023-02-13T03:49:30;100611.46;;;3.25;83.71
62436;BME280;48480;50.252;18.848;2023-02-13T03:52:26;100608.00;;;3.24;83.65
62436;BME280;48480;50.252;18.848;2023-02-13T03:54:59;100609.88;;;3.23;83.78
62436;BME280;48480;50.252;18.848;2023-02-13T03:57:45;100603.52;;;3.23;83.85
62436;BME280;48480;50.252;18.848;2023-02-13T04:00:45;100604.37;;;3.19;83.79
62436;BME280;48480;50.252;18.848;2023-02-13T04:03:29;100604.86;;;3.18;83.97
62436;BME280;48480;50.252;18.848;2023-02-13T04:06:10;100607.66;;;3.18;83.99
62436;BME280;48480;50.252;18.848;2023-02-13T04:08:37;100607.80;;;3.17;84.01
62436;BME280;48480;50.252;18.848;2023-02-13T04:11:20;100610.78;;;3.17;84.14
62436;BME280;48480;50.252;18.848;2023-02-13T04:13:57;100609.68;;;3.16;84.19
62436;BME280;48480;50.252;18.848;2023-02-13T04:16:51;100610.58;;;3.14;84.16
62436;BME280;48480;50.252;18.848;2023-02-13T04:19:15;100601.95;;;3.15;84.43
62436;BME280;48480;50.252;18.848;2023-02-13T04:21:41;100597.04;;;3.17;84.39
62436;BME280;48480;50.252;18.848;2023-02-13T04:24:08;100594.84;;;3.20;84.38
62436;BME280;48480;50.252;18.848;2023-02-13T04:26:39;100588.44;;;3.21;84.42
62436;BME280;48480;50.252;18.848;2023-02-13T04:29:06;100588.60;;;3.21;84.39
62436;BME280;48480;50.252;18.848;2023-02-13T04:31:32;100592.35;;;3.21;84.32
62436;BME280;48480;50.252;18.848;2023-02-13T04:33:58;100594.28;;;3.24;84.65
62436;BME280;48480;50.252;18.848;2023-02-13T04:36:23;100599.33;;;3.27;84.69
62436;BME280;48480;50.252;18.848;2023-02-13T04:38:49;100602.14;;;3.28;84.47
62436;BME280;48480;50.252;18.848;2023-02-13T04:41:15;100602.37;;;3.29;84.53
62436;BME280;48480;50.252;18.848;2023-02-13T04:43:41;100603.84;;;3.31;84.38
62436;BME280;48480;50.252;18.848;2023-02-13T04:46:07;100604.89;;;3.31;84.47
62436;BME280;48480;50.252;18.848;2023-02-13T04:48:32;100603.38;;;3.32;84.47
62436;BME280;48480;50.252;18.848;2023-02-13T04:50:58;100603.73;;;3.33;84.51
62436;BME280;48480;50.252;18.848;2023-02-13T04:53:23;100595.13;;;3.33;84.63
62436;BME280;48480;50.252;18.848;2023-02-13T04:55:50;100598.73;;;3.37;84.71
62436;BME280;48480;50.252;18.848;2023-02-13T04:58:16;100597.84;;;3.41;84.73
62436;BME280;48480;50.252;18.848;2023-02-13T05:00:48;100601.32;;;3.45;84.64
62436;BME280;48480;50.252;18.848;2023-02-13T05:03:14;100595.14;;;3.48;84.61
62436;BME280;48480;50.252;18.848;2023-02-13T05:05:39;100597.00;;;3.51;84.67
62436;BME280;48480;50.252;18.848;2023-02-13T05:08:06;100598.85;;;3.54;84.62
62436;BME280;48480;50.252;18.848;2023-02-13T05:10:33;100598.09;;;3.56;84.57
62436;BME280;48480;50.252;18.848;2023-02-13T05:12:58;100600.70;;;3.57;84.51
62436;BME280;48480;50.252;18.848;2023-02-13T05:15:24;100601.26;;;3.60;84.44
62436;BME280;48480;50.252;18.848;2023-02-13T05:17:50;100596.64;;;3.60;84.45
62436;BME280;48480;50.252;18.848;2023-02-13T05:20:16;100596.14;;;3.62;84.54
62436;BME280;48480;50.252;18.848;2023-02-13T05:22:46;100594.04;;;3.63;84.41
62436;BME280;48480;50.252;18.848;2023-02-13T05:25:32;100593.41;;;3.65;84.33
62436;BME280;48480;50.252;18.848;2023-02-13T05:27:57;100588.12;;;3.63;84.16
62436;BME280;48480;50.252;18.848;2023-02-13T05:30:24;100583.27;;;3.63;84.33
62436;BME280;48480;50.252;18.848;2023-02-13T05:32:49;100589.46;;;3.63;84.25
62436;BME280;48480;50.252;18.848;2023-02-13T05:35:17;100592.86;;;3.62;84.25
62436;BME280;48480;50.252;18.848;2023-02-13T05:37:43;100595.12;;;3.61;84.18
62436;BME280;48480;50.252;18.848;2023-02-13T05:40:11;100594.60;;;3.60;84.22
62436;BME280;48480;50.252;18.848;2023-02-13T05:42:39;100593.36;;;3.61;84.28
62436;BME280;48480;50.252;18.848;2023-02-13T05:45:06;100591.77;;;3.60;84.20
62436;BME280;48480;50.252;18.848;2023-02-13T05:47:32;100593.38;;;3.63;84.14
62436;BME280;48480;50.252;18.848;2023-02-13T05:49:58;100583.66;;;3.59;84.17
62436;BME280;48480;50.252;18.848;2023-02-13T05:52:24;100592.55;;;3.66;84.06
62436;BME280;48480;50.252;18.848;2023-02-13T05:54:50;100588.41;;;3.67;83.94
62436;BME280;48480;50.252;18.848;2023-02-13T05:57:15;100594.17;;;3.66;83.92
62436;BME280;48480;50.252;18.848;2023-02-13T05:59:41;100592.42;;;3.66;83.98
62436;BME280;48480;50.252;18.848;2023-02-13T06:02:06;100594.95;;;3.67;83.94
62436;BME280;48480;50.252;18.848;2023-02-13T06:04:32;100596.13;;;3.66;83.80
62436;BME280;48480;50.252;18.848;2023-02-13T06:06:58;100604.02;;;3.65;83.69
62436;BME280;48480;50.252;18.848;2023-02-13T06:09:24;100602.83;;;3.61;83.37
62436;BME280;48480;50.252;18.848;2023-02-13T06:11:50;100606.84;;;3.59;83.12
62436;BME280;48480;50.252;18.848;2023-02-13T06:14:16;100605.95;;;3.56;83.04
62436;BME280;48480;50.252;18.848;2023-02-13T06:16:41;100609.51;;;3.53;82.91
62436;BME280;48480;50.252;18.848;2023-02-13T06:19:07;100612.36;;;3.48;82.80
62436;BME280;48480;50.252;18.848;2023-02-13T06:21:33;100611.39;;;3.45;82.75
62436;BME280;48480;50.252;18.848;2023-02-13T06:24:03;100616.13;;;3.43;82.57
62436;BME280;48480;50.252;18.848;2023-02-13T06:26:29;100613.56;;;3.40;82.50
62436;BME280;48480;50.252;18.848;2023-02-13T06:28:55;100611.80;;;3.39;82.40
62436;BME280;48480;50.252;18.848;2023-02-13T06:31:20;100613.09;;;3.37;82.26
62436;BME280;48480;50.252;18.848;2023-02-13T06:33:46;100610.98;;;3.36;82.40
62436;BME280;48480;50.252;18.848;2023-02-13T06:36:12;100613.48;;;3.37;82.55
62436;BME280;48480;50.252;18.848;2023-02-13T06:38:37;100608.78;;;3.35;82.52
62436;BME280;48480;50.252;18.848;2023-02-13T06:41:03;100609.88;;;3.36;82.65
62436;BME280;48480;50.252;18.848;2023-02-13T06:43:29;100610.94;;;3.36;82.68
62436;BME280;48480;50.252;18.848;2023-02-13T06:45:55;100615.99;;;3.38;82.71
62436;BME280;48480;50.252;18.848;2023-02-13T06:48:21;100617.31;;;3.40;82.82
62436;BME280;48480;50.252;18.848;2023-02-13T06:50:47;100613.30;;;3.43;83.13
62436;BME280;48480;50.252;18.848;2023-02-13T06:53:14;100609.88;;;3.47;83.17
62436;BME280;48480;50.252;18.848;2023-02-13T06:55:40;100614.37;;;3.52;83.21
62436;BME280;48480;50.252;18.848;2023-02-13T06:58:05;100617.33;;;3.55;83.17
62436;BME280;48480;50.252;18.848;2023-02-13T07:00:31;100622.17;;;3.63;83.20
62436;BME280;48480;50.252;18.848;2023-02-13T07:03:02;100626.77;;;3.71;83.23
62436;BME280;48480;50.252;18.848;2023-02-13T07:05:28;100624.82;;;3.78;83.08
62436;BME280;48480;50.252;18.848;2023-02-13T07:07:54;100624.45;;;3.86;83.11
62436;BME280;48480;50.252;18.848;2023-02-13T07:10:20;100621.23;;;3.94;82.92
62436;BME280;48480;50.252;18.848;2023-02-13T07:12:46;100617.95;;;3.98;82.68
62436;BME280;48480;50.252;18.848;2023-02-13T07:15:11;100623.55;;;4.04;82.52
62436;BME280;48480;50.252;18.848;2023-02-13T07:17:37;100622.23;;;4.09;82.47
62436;BME280;48480;50.252;18.848;2023-02-13T07:20:04;100624.56;;;4.18;82.44
62436;BME280;48480;50.252;18.848;2023-02-13T07:22:31;100619.38;;;4.28;82.22
62436;BME280;48480;50.252;18.848;2023-02-13T07:24:57;100613.23;;;4.38;82.31
62436;BME280;48480;50.252;18.848;2023-02-13T07:27:24;100610.70;;;4.50;82.12
62436;BME280;48480;50.252;18.848;2023-02-13T07:29:50;100615.58;;;4.58;81.86
62436;BME280;48480;50.252;18.848;2023-02-13T07:32:15;100618.22;;;4.65;81.72
62436;BME280;48480;50.252;18.848;2023-02-13T07:34:41;100613.92;;;4.72;81.43
62436;BME280;48480;50.252;18.848;2023-02-13T07:37:06;100617.78;;;4.78;81.29
62436;BME280;48480;50.252;18.848;2023-02-13T07:39:32;100617.99;;;4.84;81.08
62436;BME280;48480;50.252;18.848;2023-02-13T07:41:57;100619.21;;;4.88;80.94
62436;BME280;48480;50.252;18.848;2023-02-13T07:44:23;100619.96;;;4.92;80.67
62436;BME280;48480;50.252;18.848;2023-02-13T07:46:49;100617.67;;;4.96;80.64
62436;BME280;48480;50.252;18.848;2023-02-13T07:49:15;100613.98;;;4.99;80.50
62436;BME280;48480;50.252;18.848;2023-02-13T07:51:40;100612.28;;;4.99;80.30
62436;BME280;48480;50.252;18.848;2023-02-13T07:54:06;100606.61;;;4.94;80.40
62436;BME280;48480;50.252;18.848;2023-02-13T07:56:31;100613.83;;;4.99;80.26
62436;BME280;48480;50.252;18.848;2023-02-13T07:58:57;100610.56;;;4.97;80.08
62436;BME280;48480;50.252;18.848;2023-02-13T08:01:23;100610.63;;;4.95;79.92
62436;BME280;48480;50.252;18.848;2023-02-13T08:03:49;100612.31;;;4.93;79.87
62436;BME280;48480;50.252;18.848;2023-02-13T08:06:16;100613.41;;;4.87;79.86
62436;BME280;48480;50.252;18.848;2023-02-13T08:08:44;100610.50;;;4.84;80.12
62436;BME280;48480;50.252;18.848;2023-02-13T08:11:36;100607.91;;;4.85;80.31
62436;BME280;48480;50.252;18.848;2023-02-13T08:14:25;100608.30;;;4.87;80.32
62436;BME280;48480;50.252;18.848;2023-02-13T08:16:54;100605.73;;;4.89;80.29
62436;BME280;48480;50.252;18.848;2023-02-13T08:19:21;100606.77;;;4.90;80.27
62436;BME280;48480;50.252;18.848;2023-02-13T08:21:47;100607.18;;;4.92;80.04
62436;BME280;48480;50.252;18.848;2023-02-13T08:24:13;100610.49;;;4.94;80.04
62436;BME280;48480;50.252;18.848;2023-02-13T08:26:38;100614.58;;;4.98;80.09
62436;BME280;48480;50.252;18.848;2023-02-13T08:29:05;100612.39;;;4.99;80.07
62436;BME280;48480;50.252;18.848;2023-02-13T08:31:31;100617.71;;;4.99;79.90
62436;BME280;48480;50.252;18.848;2023-02-13T08:33:57;100619.23;;;4.96;80.07
62436;BME280;48480;50.252;18.848;2023-02-13T08:36:23;100618.41;;;4.92;80.07
62436;BME280;48480;50.252;18.848;2023-02-13T08:38:50;100620.50;;;4.89;80.34
62436;BME280;48480;50.252;18.848;2023-02-13T08:41:17;100618.60;;;4.89;80.63
62436;BME280;48480;50.252;18.848;2023-02-13T08:43:45;100621.79;;;4.91;80.71
62436;BME280;48480;50.252;18.848;2023-02-13T08:46:10;100619.05;;;4.94;80.84
62436;BME280;48480;50.252;18.848;2023-02-13T08:48:36;100620.87;;;4.96;80.85
62436;BME280;48480;50.252;18.848;2023-02-13T08:51:10;100620.94;;;4.97;80.98
62436;BME280;48480;50.252;18.848;2023-02-13T08:53:37;100618.34;;;5.01;81.05
62436;BME280;48480;50.252;18.848;2023-02-13T08:56:03;100616.16;;;5.03;81.13
62436;BME280;48480;50.252;18.848;2023-02-13T08:58:30;100619.58;;;5.06;81.27
62436;BME280;48480;50.252;18.848;2023-02-13T09:00:56;100599.84;;;4.99;81.39
62436;BME280;48480;50.252;18.848;2023-02-13T09:03:22;100612.45;;;5.12;81.47
62436;BME280;48480;50.252;18.848;2023-02-13T09:05:48;100615.52;;;5.18;81.54
62436;BME280;48480;50.252;18.848;2023-02-13T09:08:14;100615.41;;;5.21;81.63
62436;BME280;48480;50.252;18.848;2023-02-13T09:10:41;100619.96;;;5.20;81.39
62436;BME280;48480;50.252;18.848;2023-02-13T09:13:10;100619.36;;;5.16;81.54
62436;BME280;48480;50.252;18.848;2023-02-13T09:15:39;100616.05;;;5.16;81.90
62436;BME280;48480;50.252;18.848;2023-02-13T09:18:06;100615.21;;;5.18;81.91
62436;BME280;48480;50.252;18.848;2023-02-13T09:20:32;100613.39;;;5.21;81.93
62436;BME280;48480;50.252;18.848;2023-02-13T09:22:58;100617.08;;;5.24;82.03
62436;BME280;48480;50.252;18.848;2023-02-13T09:25:24;100617.34;;;5.28;82.21
62436;BME280;48480;50.252;18.848;2023-02-13T09:27:50;100622.14;;;5.32;82.12
62436;BME280;48480;50.252;18.848;2023-02-13T09:30:16;100622.89;;;5.33;82.14
62436;BME280;48480;50.252;18.848;2023-02-13T09:32:49;100631.23;;;5.34;82.34
62436;BME280;48480;50.252;18.848;2023-02-13T09:35:15;100623.89;;;5.35;82.24
62436;BME280;48480;50.252;18.848;2023-02-13T09:37:41;100631.05;;;5.34;82.13
62436;BME280;48480;50.252;18.848;2023-02-13T09:46:39;100628.04;;;5.31;82.69
62436;BME280;48480;50.252;18.848;2023-02-13T09:49:10;100629.52;;;5.34;82.81
62436;BME280;48480;50.252;18.848;2023-02-13T09:51:37;100623.10;;;5.39;82.85
62436;BME280;48480;50.252;18.848;2023-02-13T09:54:07;100615.83;;;5.42;82.89
62436;BME280;48480;50.252;18.848;2023-02-13T10:01:51;100614.40;;;5.50;82.91
62436;BME280;48480;50.252;18.848;2023-02-13T10:09:41;100609.08;;;5.42;83.21
62436;BME280;48480;50.252;18.848;2023-02-13T10:17:37;100610.70;;;5.39;83.51
62436;BME280;48480;50.252;18.848;2023-02-13T10:20:15;100601.54;;;5.37;83.67
62436;BME280;48480;50.252;18.848;2023-02-13T10:22:47;100599.73;;;5.39;83.95
62436;BME280;48480;50.252;18.848;2023-02-13T10:25:30;100592.81;;;5.37;83.96
62436;BME280;48480;50.252;18.848;2023-02-13T10:28:39;100590.84;;;5.30;83.99
62436;BME280;48480;50.252;18.848;2023-02-13T10:31:07;100587.88;;;5.23;84.04
62436;BME280;48480;50.252;18.848;2023-02-13T10:33:51;100581.88;;;5.19;84.25
62436;BME280;48480;50.252;18.848;2023-02-13T10:36:25;100578.38;;;5.17;84.39
62436;BME280;48480;50.252;18.848;2023-02-13T10:42:07;100573.38;;;5.20;84.65
62436;BME280;48480;50.252;18.848;2023-02-13T11:04:16;100548.02;;;5.21;85.75
62436;BME280;48480;50.252;18.848;2023-02-13T11:06:58;100548.35;;;5.21;85.63
62436;BME280;48480;50.252;18.848;2023-02-13T11:09:25;100547.48;;;5.25;85.75
62436;BME280;48480;50.252;18.848;2023-02-13T11:11:52;100543.20;;;5.26;85.76
62436;BME280;48480;50.252;18.848;2023-02-13T11:14:22;100538.47;;;5.31;85.92
62436;BME280;48480;50.252;18.848;2023-02-13T11:16:55;100536.57;;;5.36;85.90
62436;BME280;48480;50.252;18.848;2023-02-13T11:19:58;100534.73;;;5.41;85.84
62436;BME280;48480;50.252;18.848;2023-02-13T11:27:31;100520.91;;;5.68;85.69
62436;BME280;48480;50.252;18.848;2023-02-13T11:30:00;100517.34;;;5.75;85.57
62436;BME280;48480;50.252;18.848;2023-02-13T11:32:28;100520.26;;;5.82;85.50
62436;BME280;48480;50.252;18.848;2023-02-13T11:34:55;100523.00;;;5.85;85.26
62436;BME280;48480;50.252;18.848;2023-02-13T11:37:27;100524.27;;;5.87;85.13
62436;BME280;48480;50.252;18.848;2023-02-13T11:39:56;100527.38;;;5.87;84.88
62436;BME280;48480;50.252;18.848;2023-02-13T11:45:14;100522.17;;;5.87;84.89
62436;BME280;48480;50.252;18.848;2023-02-13T11:47:44;100518.52;;;5.83;84.91
62436;BME280;48480;50.252;18.848;2023-02-13T11:50:32;100518.67;;;5.77;85.06
62436;BME280;48480;50.252;18.848;2023-02-13T11:53:08;100512.92;;;5.75;85.25
62436;BME280;48480;50.252;18.848;2023-02-13T11:55:41;100510.33;;;5.74;85.45
62436;BME280;48480;50.252;18.848;2023-02-13T12:00:42;100493.88;;;5.68;85.51
62436;BME280;48480;50.252;18.848;2023-02-13T12:08:36;100505.44;;;5.69;85.80
62436;BME280;48480;50.252;18.848;2023-02-13T12:11:20;100507.37;;;5.70;86.08
62436;BME280;48480;50.252;18.848;2023-02-13T12:13:48;100508.48;;;5.67;85.93
62436;BME280;48480;50.252;18.848;2023-02-13T12:18:52;100498.58;;;5.62;86.38
62436;BME280;48480;50.252;18.848;2023-02-13T12:27:39;100494.03;;;5.66;86.12
62436;BME280;48480;50.252;18.848;2023-02-13T12:30:26;100496.17;;;5.63;85.95
62436;BME280;48480;50.252;18.848;2023-02-13T12:41:47;100507.57;;;5.24;86.36
62436;BME280;48480;50.252;18.848;2023-02-13T12:59:07;100488.45;;;5.06;87.51
62436;BME280;48480;50.252;18.848;2023-02-13T13:04:30;100489.30;;;5.02;87.80
62436;BME280;48480;50.252;18.848;2023-02-13T13:07:20;100488.48;;;5.00;88.10
62436;BME280;48480;50.252;18.848;2023-02-13T13:10:15;100494.02;;;5.06;88.17
62436;BME280;48480;50.252;18.848;2023-02-13T13:13:20;100492.27;;;5.10;88.17
62436;BME280;48480;50.252;18.848;2023-02-13T13:21:25;100492.48;;;5.13;88.41
62436;BME280;48480;50.252;18.848;2023-02-13T13:24:40;100495.88;;;5.16;88.48
62436;BME280;48480;50.252;18.848;2023-02-13T13:27:25;100496.40;;;5.21;88.58
62436;BME280;48480;50.252;18.848;2023-02-13T13:32:53;100492.34;;;5.32;88.52
62436;BME280;48480;50.252;18.848;2023-02-13T13:35:27;100490.45;;;5.39;88.62
62436;BME280;48480;50.252;18.848;2023-02-13T13:38:36;100486.98;;;5.43;88.37
62436;BME280;48480;50.252;18.848;2023-02-13T13:41:21;100488.42;;;5.49;88.45
62436;BME280;48480;50.252;18.848;2023-02-13T13:47:15;100486.29;;;5.55;88.50
62436;BME280;48480;50.252;18.848;2023-02-13T13:54:50;100489.71;;;5.59;88.21
62436;BME280;48480;50.252;18.848;2023-02-13T13:57:26;100493.20;;;5.62;87.74
62436;BME280;48480;50.252;18.848;2023-02-13T14:00:00;100490.84;;;5.64;87.60
62436;BME280;48480;50.252;18.848;2023-02-13T14:03:12;100470.80;;;5.56;87.61
62436;BME280;48480;50.252;18.848;2023-02-13T14:05:57;100495.48;;;5.75;87.36
62436;BME280;48480;50.252;18.848;2023-02-13T14:11:03;100487.00;;;5.68;86.42
62436;BME280;48480;50.252;18.848;2023-02-13T14:13:36;100491.54;;;5.64;86.17
62436;BME280;48480;50.252;18.848;2023-02-13T14:16:08;100489.41;;;5.59;86.16
62436;BME280;48480;50.252;18.848;2023-02-13T14:18:34;100489.09;;;5.55;86.12
62436;BME280;48480;50.252;18.848;2023-02-13T14:21:02;100494.73;;;5.48;85.65
62436;BME280;48480;50.252;18.848;2023-02-13T14:23:43;100461.13;;;5.16;85.69
62436;BME280;48480;50.252;18.848;2023-02-13T14:28:54;100500.77;;;5.41;85.33
62436;BME280;48480;50.252;18.848;2023-02-13T14:31:37;100500.44;;;5.39;84.22
62436;BME280;48480;50.252;18.848;2023-02-13T14:34:07;100494.27;;;5.36;84.21
62436;BME280;48480;50.252;18.848;2023-02-13T14:36:42;100498.07;;;5.35;84.07
62436;BME280;48480;50.252;18.848;2023-02-13T14:44:26;100485.27;;;5.41;84.13
62436;BME280;48480;50.252;18.848;2023-02-13T14:46:59;100478.86;;;5.44;84.20
62436;BME280;48480;50.252;18.848;2023-02-13T14:49:29;100478.02;;;5.50;84.15
62436;BME280;48480;50.252;18.848;2023-02-13T14:52:11;100476.35;;;5.56;84.23
62436;BME280;48480;50.252;18.848;2023-02-13T14:57:36;100477.55;;;5.63;84.11
62436;BME280;48480;50.252;18.848;2023-02-13T15:00:30;100472.70;;;5.67;83.90
62436;BME280;48480;50.252;18.848;2023-02-13T15:03:14;100442.25;;;5.50;83.61
62436;BME280;48480;50.252;18.848;2023-02-13T15:05:52;100470.55;;;5.66;83.36
62436;BME280;48480;50.252;18.848;2023-02-13T15:08:27;100471.19;;;5.63;83.28
62436;BME280;48480;50.252;18.848;2023-02-13T15:10:55;100469.09;;;5.62;83.13
62436;BME280;48480;50.252;18.848;2023-02-13T15:13:24;100469.15;;;5.60;83.09
62436;BME280;48480;50.252;18.848;2023-02-13T15:15:55;100473.36;;;5.61;83.16
62436;BME280;48480;50.252;18.848;2023-02-13T15:18:26;100468.23;;;5.57;83.05
62436;BME280;48480;50.252;18.848;2023-02-13T15:20:55;100469.94;;;5.53;83.04
62436;BME280;48480;50.252;18.848;2023-02-13T15:23:29;100464.24;;;5.51;83.10
62436;BME280;48480;50.252;18.848;2023-02-13T15:25:57;100460.86;;;5.48;82.96
62436;BME280;48480;50.252;18.848;2023-02-13T15:28:24;100456.70;;;5.42;83.02
62436;BME280;48480;50.252;18.848;2023-02-13T15:31:04;100457.86;;;5.39;82.84
62436;BME280;48480;50.252;18.848;2023-02-13T15:33:42;100464.33;;;5.33;82.71
62436;BME280;48480;50.252;18.848;2023-02-13T15:36:16;100464.83;;;5.29;82.48
62436;BME280;48480;50.252;18.848;2023-02-13T15:38:42;100459.33;;;5.26;82.34
62436;BME280;48480;50.252;18.848;2023-02-13T15:41:19;100456.17;;;5.21;82.43
62436;BME280;48480;50.252;18.848;2023-02-13T15:43:48;100456.63;;;5.20;82.52
62436;BME280;48480;50.252;18.848;2023-02-13T15:46:20;100454.59;;;5.17;82.55
62436;BME280;48480;50.252;18.848;2023-02-13T15:48:49;100460.55;;;5.08;82.42
62436;BME280;48480;50.252;18.848;2023-02-13T15:51:33;100478.70;;;5.03;82.50
62436;BME280;48480;50.252;18.848;2023-02-13T15:54:21;100475.56;;;5.01;82.94
62436;BME280;48480;50.252;18.848;2023-02-13T15:56:47;100467.13;;;5.06;83.00
62436;BME280;48480;50.252;18.848;2023-02-13T15:59:14;100457.11;;;5.14;83.18
62436;BME280;48480;50.252;18.848;2023-02-13T16:01:41;100456.04;;;5.19;82.96
62436;BME280;48480;50.252;18.848;2023-02-13T16:04:13;100465.20;;;5.27;82.86